sensor_id;sensor_type;location;lat;lon;timestamp;P1;durP1;ratioP1;P2;durP2;ratioP2
10957;SDS011;5531;42.570;23.676;2023-05-18T00:01:14;7.15;;;3.95;;
10957;SDS011;5531;42.570;23.676;2023-05-18T00:03:42;70.90;;;5.22;;
10957;SDS011;5531;42.570;23.676;2023-05-18T00:06:14;4.20;;;3.70;;
10957;SDS011;5531;42.570;23.676;2023-05-18T00:08:42;20.33;;;4.05;;
10957;SDS011;5531;42.570;23.676;2023-05-18T00:11:11;6.47;;;3.72;;
10957;SDS011;5531;42.570;23.676;2023-05-18T00:13:40;5.43;;;4.30;;
10957;SDS011;5531;42.570;23.676;2023-05-18T00:16:08;4.05;;;3.55;;
10957;SDS011;5531;42.570;23.676;2023-05-18T00:18:40;5.05;;;4.25;;
10957;SDS011;5531;42.570;23.676;2023-05-18T00:21:09;6.15;;;4.00;;
10957;SDS011;5531;42.570;23.676;2023-05-18T00:23:43;4.70;;;3.72;;
10957;SDS011;5531;42.570;23.676;2023-05-18T00:26:14;4.63;;;3.58;;
10957;SDS011;5531;42.570;23.676;2023-05-18T00:28:43;4.75;;;3.72;;
10957;SDS011;5531;42.570;23.676;2023-05-18T00:31:11;14.25;;;4.13;;
10957;SDS011;5531;42.570;23.676;2023-05-18T00:33:40;5.05;;;4.05;;
10957;SDS011;5531;42.570;23.676;2023-05-18T00:36:09;3.90;;;3.50;;
10957;SDS011;5531;42.570;23.676;2023-05-18T00:38:38;3.65;;;3.35;;
10957;SDS011;5531;42.570;23.676;2023-05-18T00:41:09;5.00;;;3.67;;
10957;SDS011;5531;42.570;23.676;2023-05-18T00:43:39;4.97;;;3.75;;
10957;SDS011;5531;42.570;23.676;2023-05-18T00:46:07;4.75;;;4.25;;
10957;SDS011;5531;42.570;23.676;2023-05-18T00:48:36;6.47;;;3.60;;
10957;SDS011;5531;42.570;23.676;2023-05-18T00:51:05;6.03;;;4.13;;
10957;SDS011;5531;42.570;23.676;2023-05-18T00:53:34;30.50;;;4.55;;
10957;SDS011;5531;42.570;23.676;2023-05-18T00:56:09;26.02;;;4.50;;
10957;SDS011;5531;42.570;23.676;2023-05-18T00:58:38;24.10;;;4.70;;
10957;SDS011;5531;42.570;23.676;2023-05-18T01:01:07;7.18;;;4.20;;
10957;SDS011;5531;42.570;23.676;2023-05-18T01:03:36;4.90;;;4.40;;
10957;SDS011;5531;42.570;23.676;2023-05-18T01:06:07;5.80;;;4.68;;
10957;SDS011;5531;42.570;23.676;2023-05-18T01:08:37;4.85;;;4.30;;
10957;SDS011;5531;42.570;23.676;2023-05-18T01:11:10;5.03;;;4.00;;
10957;SDS011;5531;42.570;23.676;2023-05-18T01:13:46;5.60;;;3.88;;
10957;SDS011;5531;42.570;23.676;2023-05-18T01:16:17;5.95;;;3.97;;
10957;SDS011;5531;42.570;23.676;2023-05-18T01:18:49;6.70;;;3.95;;
10957;SDS011;5531;42.570;23.676;2023-05-18T01:21:22;5.53;;;3.78;;
10957;SDS011;5531;42.570;23.676;2023-05-18T01:23:56;3.60;;;3.30;;
10957;SDS011;5531;42.570;23.676;2023-05-18T01:26:31;5.00;;;3.20;;
10957;SDS011;5531;42.570;23.676;2023-05-18T01:29:02;3.45;;;2.75;;
10957;SDS011;5531;42.570;23.676;2023-05-18T01:31:32;3.03;;;2.60;;
10957;SDS011;5531;42.570;23.676;2023-05-18T01:34:01;3.67;;;2.80;;
10957;SDS011;5531;42.570;23.676;2023-05-18T01:36:29;3.50;;;2.90;;
10957;SDS011;5531;42.570;23.676;2023-05-18T01:38:58;3.15;;;2.85;;
10957;SDS011;5531;42.570;23.676;2023-05-18T01:41:30;9.95;;;2.78;;
10957;SDS011;5531;42.570;23.676;2023-05-18T01:44:00;3.40;;;3.10;;
10957;SDS011;5531;42.570;23.676;2023-05-18T01:46:34;7.07;;;3.15;;
10957;SDS011;5531;42.570;23.676;2023-05-18T01:49:05;9.27;;;3.05;;
10957;SDS011;5531;42.570;23.676;2023-05-18T01:51:38;5.55;;;2.60;;
10957;SDS011;5531;42.570;23.676;2023-05-18T01:54:09;14.65;;;3.08;;
10957;SDS011;5531;42.570;23.676;2023-05-18T01:56:41;3.05;;;2.60;;
10957;SDS011;5531;42.570;23.676;2023-05-18T01:59:10;3.13;;;2.83;;
10957;SDS011;5531;42.570;23.676;2023-05-18T02:01:39;25.73;;;3.20;;
10957;SDS011;5531;42.570;23.676;2023-05-18T02:04:07;44.83;;;3.95;;
10957;SDS011;5531;42.570;23.676;2023-05-18T02:06:36;18.63;;;2.60;;
10957;SDS011;5531;42.570;23.676;2023-05-18T02:09:05;77.30;;;4.18;;
10957;SDS011;5531;42.570;23.676;2023-05-18T02:11:33;52.60;;;3.47;;
10957;SDS011;5531;42.570;23.676;2023-05-18T02:14:04;4.32;;;2.03;;
10957;SDS011;5531;42.570;23.676;2023-05-18T02:16:33;25.58;;;2.75;;
10957;SDS011;5531;42.570;23.676;2023-05-18T02:19:02;7.93;;;2.30;;
10957;SDS011;5531;42.570;23.676;2023-05-18T02:21:30;3.83;;;2.30;;
10957;SDS011;5531;42.570;23.676;2023-05-18T02:23:59;30.98;;;3.13;;
10957;SDS011;5531;42.570;23.676;2023-05-18T02:26:28;5.95;;;2.72;;
10957;SDS011;5531;42.570;23.676;2023-05-18T02:28:56;4.88;;;2.70;;
10957;SDS011;5531;42.570;23.676;2023-05-18T02:31:28;3.83;;;2.38;;
10957;SDS011;5531;42.570;23.676;2023-05-18T02:33:56;37.88;;;3.53;;
10957;SDS011;5531;42.570;23.676;2023-05-18T02:36:25;29.02;;;3.17;;
10957;SDS011;5531;42.570;23.676;2023-05-18T02:39:01;5.18;;;2.63;;
10957;SDS011;5531;42.570;23.676;2023-05-18T02:41:30;2.78;;;2.53;;
10957;SDS011;5531;42.570;23.676;2023-05-18T02:43:59;6.68;;;2.90;;
10957;SDS011;5531;42.570;23.676;2023-05-18T02:46:31;3.10;;;2.60;;
10957;SDS011;5531;42.570;23.676;2023-05-18T02:48:59;5.07;;;3.00;;
10957;SDS011;5531;42.570;23.676;2023-05-18T02:51:28;3.40;;;2.90;;
10957;SDS011;5531;42.570;23.676;2023-05-18T02:53:57;3.38;;;2.70;;
10957;SDS011;5531;42.570;23.676;2023-05-18T02:56:25;3.85;;;3.00;;
10957;SDS011;5531;42.570;23.676;2023-05-18T02:58:54;4.03;;;2.58;;
10957;SDS011;5531;42.570;23.676;2023-05-18T03:01:25;2.92;;;2.65;;
10957;SDS011;5531;42.570;23.676;2023-05-18T03:03:56;4.50;;;2.70;;
10957;SDS011;5531;42.570;23.676;2023-05-18T03:06:25;15.90;;;3.08;;
10957;SDS011;5531;42.570;23.676;2023-05-18T03:08:54;8.63;;;2.97;;
10957;SDS011;5531;42.570;23.676;2023-05-18T03:11:23;72.90;;;3.92;;
10957;SDS011;5531;42.570;23.676;2023-05-18T03:13:52;14.25;;;2.80;;
10957;SDS011;5531;42.570;23.676;2023-05-18T03:16:21;3.30;;;2.60;;
10957;SDS011;5531;42.570;23.676;2023-05-18T03:18:52;3.65;;;3.00;;
10957;SDS011;5531;42.570;23.676;2023-05-18T03:21:25;3.05;;;2.75;;
10957;SDS011;5531;42.570;23.676;2023-05-18T03:23:58;5.03;;;3.38;;
10957;SDS011;5531;42.570;23.676;2023-05-18T03:26:26;3.28;;;2.97;;
10957;SDS011;5531;42.570;23.676;2023-05-18T03:28:55;3.17;;;2.88;;
10957;SDS011;5531;42.570;23.676;2023-05-18T03:31:25;3.47;;;2.50;;
10957;SDS011;5531;42.570;23.676;2023-05-18T03:33:53;2.60;;;2.40;;
10957;SDS011;5531;42.570;23.676;2023-05-18T03:36:25;3.15;;;2.33;;
10957;SDS011;5531;42.570;23.676;2023-05-18T03:38:54;2.80;;;2.20;;
10957;SDS011;5531;42.570;23.676;2023-05-18T03:41:22;8.93;;;2.50;;
10957;SDS011;5531;42.570;23.676;2023-05-18T03:43:51;2.53;;;2.33;;
10957;SDS011;5531;42.570;23.676;2023-05-18T03:46:19;2.90;;;2.20;;
10957;SDS011;5531;42.570;23.676;2023-05-18T03:48:48;3.13;;;2.38;;
10957;SDS011;5531;42.570;23.676;2023-05-18T03:51:18;2.30;;;2.10;;
10957;SDS011;5531;42.570;23.676;2023-05-18T03:53:49;3.45;;;2.60;;
10957;SDS011;5531;42.570;23.676;2023-05-18T03:56:17;2.67;;;2.25;;
10957;SDS011;5531;42.570;23.676;2023-05-18T03:58:47;2.85;;;2.20;;
10957;SDS011;5531;42.570;23.676;2023-05-18T04:01:16;19.00;;;2.67;;
10957;SDS011;5531;42.570;23.676;2023-05-18T04:03:48;31.15;;;2.80;;
10957;SDS011;5531;42.570;23.676;2023-05-18T04:06:20;43.60;;;2.90;;
10957;SDS011;5531;42.570;23.676;2023-05-18T04:08:53;27.00;;;2.60;;
10957;SDS011;5531;42.570;23.676;2023-05-18T04:11:22;10.88;;;1.90;;
10957;SDS011;5531;42.570;23.676;2023-05-18T04:13:50;20.50;;;2.50;;
10957;SDS011;5531;42.570;23.676;2023-05-18T04:16:19;6.95;;;2.22;;
10957;SDS011;5531;42.570;23.676;2023-05-18T04:18:47;7.93;;;2.00;;
10957;SDS011;5531;42.570;23.676;2023-05-18T04:21:16;2.13;;;1.90;;
10957;SDS011;5531;42.570;23.676;2023-05-18T04:23:44;5.57;;;1.75;;
10957;SDS011;5531;42.570;23.676;2023-05-18T04:26:16;22.60;;;2.33;;
10957;SDS011;5531;42.570;23.676;2023-05-18T04:28:45;18.65;;;2.53;;
10957;SDS011;5531;42.570;23.676;2023-05-18T04:31:14;17.23;;;2.65;;
10957;SDS011;5531;42.570;23.676;2023-05-18T04:33:42;30.83;;;2.88;;
10957;SDS011;5531;42.570;23.676;2023-05-18T04:36:11;27.15;;;3.00;;
10957;SDS011;5531;42.570;23.676;2023-05-18T04:38:44;7.13;;;6.55;;
10957;SDS011;5531;42.570;23.676;2023-05-18T04:41:17;13.57;;;3.40;;
10957;SDS011;5531;42.570;23.676;2023-05-18T04:43:47;18.92;;;3.38;;
10957;SDS011;5531;42.570;23.676;2023-05-18T04:46:16;55.05;;;4.40;;
10957;SDS011;5531;42.570;23.676;2023-05-18T04:48:46;17.83;;;3.88;;
10957;SDS011;5531;42.570;23.676;2023-05-18T04:51:15;3.83;;;3.50;;
10957;SDS011;5531;42.570;23.676;2023-05-18T04:53:46;51.03;;;4.15;;
10957;SDS011;5531;42.570;23.676;2023-05-18T04:56:18;13.38;;;3.70;;
10957;SDS011;5531;42.570;23.676;2023-05-18T04:58:47;13.52;;;3.33;;
10957;SDS011;5531;42.570;23.676;2023-05-18T05:01:15;17.30;;;3.55;;
10957;SDS011;5531;42.570;23.676;2023-05-18T05:03:44;8.93;;;3.58;;
10957;SDS011;5531;42.570;23.676;2023-05-18T05:06:12;3.20;;;2.88;;
10957;SDS011;5531;42.570;23.676;2023-05-18T05:08:41;12.38;;;3.47;;
10957;SDS011;5531;42.570;23.676;2023-05-18T05:11:09;40.97;;;3.60;;
10957;SDS011;5531;42.570;23.676;2023-05-18T05:13:40;29.92;;;3.80;;
10957;SDS011;5531;42.570;23.676;2023-05-18T05:16:09;24.25;;;4.00;;
10957;SDS011;5531;42.570;23.676;2023-05-18T05:18:38;39.55;;;4.20;;
10957;SDS011;5531;42.570;23.676;2023-05-18T05:21:07;7.18;;;3.25;;
10957;SDS011;5531;42.570;23.676;2023-05-18T05:23:35;3.30;;;2.90;;
10957;SDS011;5531;42.570;23.676;2023-05-18T05:26:05;3.28;;;2.97;;
10957;SDS011;5531;42.570;23.676;2023-05-18T05:28:34;7.25;;;2.88;;
10957;SDS011;5531;42.570;23.676;2023-05-18T05:31:05;3.15;;;2.88;;
10957;SDS011;5531;42.570;23.676;2023-05-18T05:33:33;13.88;;;3.47;;
10957;SDS011;5531;42.570;23.676;2023-05-18T05:36:02;22.73;;;3.95;;
10957;SDS011;5531;42.570;23.676;2023-05-18T05:38:32;18.15;;;4.13;;
10957;SDS011;5531;42.570;23.676;2023-05-18T05:41:01;4.68;;;3.72;;
10957;SDS011;5531;42.570;23.676;2023-05-18T05:43:29;9.68;;;3.78;;
10957;SDS011;5531;42.570;23.676;2023-05-18T05:45:58;4.03;;;3.63;;
10957;SDS011;5531;42.570;23.676;2023-05-18T05:48:29;10.45;;;3.78;;
10957;SDS011;5531;42.570;23.676;2023-05-18T05:50:57;3.13;;;2.85;;
10957;SDS011;5531;42.570;23.676;2023-05-18T05:53:26;3.10;;;2.80;;
10957;SDS011;5531;42.570;23.676;2023-05-18T05:55:54;3.78;;;3.47;;
10957;SDS011;5531;42.570;23.676;2023-05-18T05:58:23;2.80;;;2.60;;
10957;SDS011;5531;42.570;23.676;2023-05-18T06:00:51;1.88;;;1.77;;
10957;SDS011;5531;42.570;23.676;2023-05-18T06:03:20;2.15;;;1.95;;
10957;SDS011;5531;42.570;23.676;2023-05-18T06:05:51;2.30;;;2.10;;
10957;SDS011;5531;42.570;23.676;2023-05-18T06:08:20;2.50;;;2.30;;
10957;SDS011;5531;42.570;23.676;2023-05-18T06:10:49;2.78;;;2.53;;
10957;SDS011;5531;42.570;23.676;2023-05-18T06:13:17;2.35;;;2.15;;
10957;SDS011;5531;42.570;23.676;2023-05-18T06:15:46;1.80;;;1.70;;
10957;SDS011;5531;42.570;23.676;2023-05-18T06:18:15;1.63;;;1.52;;
10957;SDS011;5531;42.570;23.676;2023-05-18T06:20:43;1.98;;;1.77;;
10957;SDS011;5531;42.570;23.676;2023-05-18T06:23:15;2.20;;;2.00;;
10957;SDS011;5531;42.570;23.676;2023-05-18T06:25:47;1.90;;;1.80;;
10957;SDS011;5531;42.570;23.676;2023-05-18T06:28:15;1.83;;;1.70;;
10957;SDS011;5531;42.570;23.676;2023-05-18T06:30:44;3.17;;;1.80;;
10957;SDS011;5531;42.570;23.676;2023-05-18T06:33:13;1.70;;;1.60;;
10957;SDS011;5531;42.570;23.676;2023-05-18T06:35:41;2.22;;;1.70;;
10957;SDS011;5531;42.570;23.676;2023-05-18T06:38:10;1.75;;;1.65;;
10957;SDS011;5531;42.570;23.676;2023-05-18T06:40:41;3.72;;;2.05;;
10957;SDS011;5531;42.570;23.676;2023-05-18T06:43:10;2.65;;;2.45;;
10957;SDS011;5531;42.570;23.676;2023-05-18T06:45:38;2.42;;;2.17;;
10957;SDS011;5531;42.570;23.676;2023-05-18T06:48:07;2.10;;;1.73;;
10957;SDS011;5531;42.570;23.676;2023-05-18T06:50:35;3.05;;;1.40;;
10957;SDS011;5531;42.570;23.676;2023-05-18T06:53:04;2.60;;;2.15;;
10957;SDS011;5531;42.570;23.676;2023-05-18T06:55:32;2.55;;;2.35;;
10957;SDS011;5531;42.570;23.676;2023-05-18T06:58:04;3.10;;;2.80;;
10957;SDS011;5531;42.570;23.676;2023-05-18T07:00:33;3.45;;;3.15;;
10957;SDS011;5531;42.570;23.676;2023-05-18T07:03:01;2.60;;;2.40;;
10957;SDS011;5531;42.570;23.676;2023-05-18T07:05:30;2.80;;;2.60;;
10957;SDS011;5531;42.570;23.676;2023-05-18T07:07:58;3.10;;;2.75;;
10957;SDS011;5531;42.570;23.676;2023-05-18T07:10:29;3.75;;;3.17;;
10957;SDS011;5531;42.570;23.676;2023-05-18T07:12:57;3.25;;;2.88;;
10957;SDS011;5531;42.570;23.676;2023-05-18T07:15:29;5.65;;;3.72;;
10957;SDS011;5531;42.570;23.676;2023-05-18T07:17:57;4.03;;;3.60;;
10957;SDS011;5531;42.570;23.676;2023-05-18T07:20:26;3.70;;;3.40;;
10957;SDS011;5531;42.570;23.676;2023-05-18T07:22:55;5.55;;;3.45;;
10957;SDS011;5531;42.570;23.676;2023-05-18T07:25:23;3.88;;;3.55;;
10957;SDS011;5531;42.570;23.676;2023-05-18T07:27:52;5.45;;;3.65;;
10957;SDS011;5531;42.570;23.676;2023-05-18T07:30:21;5.38;;;3.55;;
10957;SDS011;5531;42.570;23.676;2023-05-18T07:32:53;3.70;;;3.30;;
10957;SDS011;5531;42.570;23.676;2023-05-18T07:35:21;4.03;;;3.63;;
10957;SDS011;5531;42.570;23.676;2023-05-18T07:37:50;3.88;;;3.15;;
10957;SDS011;5531;42.570;23.676;2023-05-18T07:40:19;3.17;;;2.88;;
10957;SDS011;5531;42.570;23.676;2023-05-18T07:42:47;4.32;;;3.50;;
10957;SDS011;5531;42.570;23.676;2023-05-18T07:45:16;5.03;;;3.30;;
10957;SDS011;5531;42.570;23.676;2023-05-18T07:47:45;4.93;;;4.43;;
10957;SDS011;5531;42.570;23.676;2023-05-18T07:50:16;5.32;;;3.47;;
10957;SDS011;5531;42.570;23.676;2023-05-18T07:52:45;4.07;;;3.67;;
10957;SDS011;5531;42.570;23.676;2023-05-18T07:55:13;4.78;;;4.38;;
10957;SDS011;5531;42.570;23.676;2023-05-18T07:57:43;5.28;;;4.35;;
10957;SDS011;5531;42.570;23.676;2023-05-18T08:00:12;4.35;;;3.90;;
10957;SDS011;5531;42.570;23.676;2023-05-18T08:02:41;6.45;;;4.10;;
10957;SDS011;5531;42.570;23.676;2023-05-18T08:05:10;4.63;;;4.20;;
10957;SDS011;5531;42.570;23.676;2023-05-18T08:07:41;4.97;;;4.47;;
10957;SDS011;5531;42.570;23.676;2023-05-18T08:10:10;5.03;;;4.53;;
10957;SDS011;5531;42.570;23.676;2023-05-18T08:12:39;5.22;;;4.05;;
10957;SDS011;5531;42.570;23.676;2023-05-18T08:15:07;5.38;;;4.88;;
10957;SDS011;5531;42.570;23.676;2023-05-18T08:17:36;6.07;;;5.47;;
10957;SDS011;5531;42.570;23.676;2023-05-18T08:20:05;6.55;;;5.72;;
10957;SDS011;5531;42.570;23.676;2023-05-18T08:22:34;5.45;;;4.95;;
10957;SDS011;5531;42.570;23.676;2023-05-18T08:25:06;5.60;;;5.03;;
10957;SDS011;5531;42.570;23.676;2023-05-18T08:27:35;5.53;;;4.68;;
10957;SDS011;5531;42.570;23.676;2023-05-18T08:30:05;6.00;;;4.72;;
10957;SDS011;5531;42.570;23.676;2023-05-18T08:32:33;4.93;;;4.32;;
10957;SDS011;5531;42.570;23.676;2023-05-18T08:35:03;5.65;;;4.55;;
10957;SDS011;5531;42.570;23.676;2023-05-18T08:37:32;4.72;;;4.22;;
10957;SDS011;5531;42.570;23.676;2023-05-18T08:40:02;5.50;;;5.00;;
10957;SDS011;5531;42.570;23.676;2023-05-18T08:42:37;4.93;;;4.47;;
10957;SDS011;5531;42.570;23.676;2023-05-18T08:45:09;6.25;;;4.40;;
10957;SDS011;5531;42.570;23.676;2023-05-18T08:47:39;5.00;;;4.50;;
10957;SDS011;5531;42.570;23.676;2023-05-18T08:50:08;4.82;;;4.28;;
10957;SDS011;5531;42.570;23.676;2023-05-18T08:52:41;5.05;;;4.43;;
10957;SDS011;5531;42.570;23.676;2023-05-18T08:55:11;4.72;;;4.30;;
10957;SDS011;5531;42.570;23.676;2023-05-18T08:57:43;4.93;;;4.32;;
10957;SDS011;5531;42.570;23.676;2023-05-18T09:00:14;4.93;;;4.45;;
10957;SDS011;5531;42.570;23.676;2023-05-18T09:02:43;6.40;;;4.32;;
10957;SDS011;5531;42.570;23.676;2023-05-18T09:05:12;6.80;;;4.35;;
10957;SDS011;5531;42.570;23.676;2023-05-18T09:07:41;4.90;;;4.40;;
10957;SDS011;5531;42.570;23.676;2023-05-18T09:10:10;4.80;;;4.30;;
10957;SDS011;5531;42.570;23.676;2023-05-18T09:12:40;6.78;;;4.88;;
10957;SDS011;5531;42.570;23.676;2023-05-18T09:15:14;6.05;;;4.20;;
10957;SDS011;5531;42.570;23.676;2023-05-18T09:17:42;4.32;;;3.92;;
10957;SDS011;5531;42.570;23.676;2023-05-18T09:20:11;5.63;;;4.13;;
10957;SDS011;5531;42.570;23.676;2023-05-18T09:22:40;4.40;;;4.00;;
10957;SDS011;5531;42.570;23.676;2023-05-18T09:25:09;5.00;;;4.03;;
10957;SDS011;5531;42.570;23.676;2023-05-18T09:27:37;4.75;;;4.28;;
10957;SDS011;5531;42.570;23.676;2023-05-18T09:30:09;5.30;;;4.00;;
10957;SDS011;5531;42.570;23.676;2023-05-18T09:32:40;4.75;;;4.32;;
10957;SDS011;5531;42.570;23.676;2023-05-18T09:35:09;4.75;;;4.25;;
10957;SDS011;5531;42.570;23.676;2023-05-18T09:37:40;4.80;;;4.30;;
10957;SDS011;5531;42.570;23.676;2023-05-18T09:40:08;6.97;;;4.30;;
10957;SDS011;5531;42.570;23.676;2023-05-18T09:42:38;5.28;;;4.60;;
10957;SDS011;5531;42.570;23.676;2023-05-18T09:45:14;5.45;;;4.40;;
10957;SDS011;5531;42.570;23.676;2023-05-18T09:47:46;9.30;;;4.50;;
10957;SDS011;5531;42.570;23.676;2023-05-18T09:50:17;4.65;;;4.25;;
10957;SDS011;5531;42.570;23.676;2023-05-18T09:52:46;4.13;;;3.58;;
10957;SDS011;5531;42.570;23.676;2023-05-18T09:55:15;5.68;;;4.03;;
10957;SDS011;5531;42.570;23.676;2023-05-18T09:57:44;4.20;;;3.80;;
10957;SDS011;5531;42.570;23.676;2023-05-18T10:00:14;4.00;;;3.70;;
10957;SDS011;5531;42.570;23.676;2023-05-18T10:02:47;5.18;;;4.28;;
10957;SDS011;5531;42.570;23.676;2023-05-18T10:05:20;4.05;;;3.65;;
10957;SDS011;5531;42.570;23.676;2023-05-18T10:07:49;5.32;;;3.53;;
10957;SDS011;5531;42.570;23.676;2023-05-18T10:10:18;4.45;;;4.03;;
10957;SDS011;5531;42.570;23.676;2023-05-18T10:12:48;3.90;;;3.20;;
10957;SDS011;5531;42.570;23.676;2023-05-18T10:15:18;3.55;;;3.25;;
10957;SDS011;5531;42.570;23.676;2023-05-18T10:17:50;3.58;;;2.88;;
10957;SDS011;5531;42.570;23.676;2023-05-18T10:20:22;3.15;;;2.70;;
10957;SDS011;5531;42.570;23.676;2023-05-18T10:22:52;3.20;;;2.85;;
10957;SDS011;5531;42.570;23.676;2023-05-18T10:25:22;2.97;;;2.72;;
10957;SDS011;5531;42.570;23.676;2023-05-18T10:27:54;2.88;;;2.58;;
10957;SDS011;5531;42.570;23.676;2023-05-18T10:30:23;3.70;;;2.50;;
10957;SDS011;5531;42.570;23.676;2023-05-18T10:32:54;2.67;;;2.42;;
10957;SDS011;5531;42.570;23.676;2023-05-18T10:35:24;2.40;;;2.20;;
10957;SDS011;5531;42.570;23.676;2023-05-18T10:37:53;3.72;;;2.50;;
10957;SDS011;5531;42.570;23.676;2023-05-18T10:40:22;3.47;;;2.83;;
10957;SDS011;5531;42.570;23.676;2023-05-18T10:42:51;4.45;;;2.80;;
10957;SDS011;5531;42.570;23.676;2023-05-18T10:45:20;3.35;;;2.75;;
10957;SDS011;5531;42.570;23.676;2023-05-18T10:47:49;3.55;;;3.00;;
10957;SDS011;5531;42.570;23.676;2023-05-18T10:50:22;3.13;;;2.83;;
10957;SDS011;5531;42.570;23.676;2023-05-18T10:52:50;2.85;;;2.55;;
10957;SDS011;5531;42.570;23.676;2023-05-18T10:55:19;3.92;;;2.60;;
10957;SDS011;5531;42.570;23.676;2023-05-18T10:57:48;3.00;;;2.70;;
10957;SDS011;5531;42.570;23.676;2023-05-18T11:00:19;2.60;;;2.38;;
10957;SDS011;5531;42.570;23.676;2023-05-18T11:02:48;3.10;;;2.80;;
10957;SDS011;5531;42.570;23.676;2023-05-18T11:05:25;3.38;;;2.50;;
10957;SDS011;5531;42.570;23.676;2023-05-18T11:07:59;2.92;;;2.63;;
10957;SDS011;5531;42.570;23.676;2023-05-18T11:10:33;3.90;;;2.25;;
10957;SDS011;5531;42.570;23.676;2023-05-18T11:13:02;2.60;;;2.40;;
10957;SDS011;5531;42.570;23.676;2023-05-18T11:18:14;3.72;;;2.70;;
10957;SDS011;5531;42.570;23.676;2023-05-18T11:20:46;2.63;;;2.42;;
10957;SDS011;5531;42.570;23.676;2023-05-18T11:23:15;2.63;;;2.40;;
10957;SDS011;5531;42.570;23.676;2023-05-18T11:25:47;4.07;;;2.78;;
10957;SDS011;5531;42.570;23.676;2023-05-18T11:28:15;3.03;;;2.47;;
10957;SDS011;5531;42.570;23.676;2023-05-18T11:30:47;3.05;;;2.20;;
10957;SDS011;5531;42.570;23.676;2023-05-18T11:33:20;2.28;;;2.08;;
10957;SDS011;5531;42.570;23.676;2023-05-18T11:35:59;2.47;;;2.28;;
10957;SDS011;5531;42.570;23.676;2023-05-18T11:41:25;2.47;;;2.17;;
10957;SDS011;5531;42.570;23.676;2023-05-18T11:43:57;2.20;;;2.00;;
10957;SDS011;5531;42.570;23.676;2023-05-18T11:46:26;3.65;;;2.42;;
10957;SDS011;5531;42.570;23.676;2023-05-18T11:48:54;4.72;;;2.50;;
10957;SDS011;5531;42.570;23.676;2023-05-18T11:51:25;3.10;;;2.58;;
10957;SDS011;5531;42.570;23.676;2023-05-18T11:53:54;3.42;;;2.47;;
10957;SDS011;5531;42.570;23.676;2023-05-18T11:56:23;2.90;;;2.60;;
10957;SDS011;5531;42.570;23.676;2023-05-18T12:01:39;4.35;;;2.70;;
10957;SDS011;5531;42.570;23.676;2023-05-18T12:04:08;5.20;;;2.67;;
10957;SDS011;5531;42.570;23.676;2023-05-18T12:06:39;3.13;;;2.72;;
10957;SDS011;5531;42.570;23.676;2023-05-18T12:09:08;3.90;;;2.95;;
10957;SDS011;5531;42.570;23.676;2023-05-18T12:11:37;4.70;;;2.97;;
10957;SDS011;5531;42.570;23.676;2023-05-18T12:14:05;4.40;;;2.90;;
10957;SDS011;5531;42.570;23.676;2023-05-18T12:16:35;3.25;;;2.95;;
10957;SDS011;5531;42.570;23.676;2023-05-18T12:19:03;3.38;;;2.72;;
10957;SDS011;5531;42.570;23.676;2023-05-18T12:21:33;4.13;;;3.20;;
10957;SDS011;5531;42.570;23.676;2023-05-18T12:24:05;6.05;;;2.85;;
10957;SDS011;5531;42.570;23.676;2023-05-18T12:26:33;4.25;;;2.95;;
10957;SDS011;5531;42.570;23.676;2023-05-18T12:29:02;3.55;;;2.80;;
10957;SDS011;5531;42.570;23.676;2023-05-18T12:31:31;3.20;;;2.90;;
10957;SDS011;5531;42.570;23.676;2023-05-18T12:34:00;5.07;;;2.83;;
10957;SDS011;5531;42.570;23.676;2023-05-18T12:36:29;3.00;;;2.70;;
10957;SDS011;5531;42.570;23.676;2023-05-18T12:38:59;3.05;;;2.70;;
10957;SDS011;5531;42.570;23.676;2023-05-18T12:41:31;2.75;;;2.55;;
10957;SDS011;5531;42.570;23.676;2023-05-18T12:43:59;2.97;;;2.65;;
10957;SDS011;5531;42.570;23.676;2023-05-18T12:46:29;2.65;;;2.45;;
10957;SDS011;5531;42.570;23.676;2023-05-18T12:48:58;3.72;;;2.58;;
10957;SDS011;5531;42.570;23.676;2023-05-18T12:51:31;2.90;;;2.60;;
10957;SDS011;5531;42.570;23.676;2023-05-18T12:54:00;4.30;;;3.00;;
10957;SDS011;5531;42.570;23.676;2023-05-18T12:59:17;2.60;;;2.40;;
10957;SDS011;5531;42.570;23.676;2023-05-18T13:01:46;3.15;;;2.40;;
10957;SDS011;5531;42.570;23.676;2023-05-18T13:04:15;3.28;;;2.85;;
10957;SDS011;5531;42.570;23.676;2023-05-18T13:06:43;3.63;;;2.63;;
10957;SDS011;5531;42.570;23.676;2023-05-18T13:09:12;3.63;;;2.67;;
10957;SDS011;5531;42.570;23.676;2023-05-18T13:11:45;2.40;;;2.15;;
10957;SDS011;5531;42.570;23.676;2023-05-18T13:14:13;3.88;;;2.50;;
10957;SDS011;5531;42.570;23.676;2023-05-18T13:16:51;2.22;;;2.00;;
10957;SDS011;5531;42.570;23.676;2023-05-18T13:19:19;4.65;;;2.25;;
10957;SDS011;5531;42.570;23.676;2023-05-18T13:21:53;3.75;;;2.40;;
10957;SDS011;5531;42.570;23.676;2023-05-18T13:24:22;2.70;;;2.50;;
10957;SDS011;5531;42.570;23.676;2023-05-18T13:26:51;2.80;;;2.53;;
10957;SDS011;5531;42.570;23.676;2023-05-18T13:29:19;2.30;;;2.10;;
10957;SDS011;5531;42.570;23.676;2023-05-18T13:31:50;4.45;;;2.50;;
10957;SDS011;5531;42.570;23.676;2023-05-18T13:34:19;2.92;;;2.63;;
10957;SDS011;5531;42.570;23.676;2023-05-18T13:36:48;2.88;;;2.60;;
10957;SDS011;5531;42.570;23.676;2023-05-18T13:39:16;3.25;;;2.58;;
10957;SDS011;5531;42.570;23.676;2023-05-18T13:41:46;2.83;;;2.60;;
10957;SDS011;5531;42.570;23.676;2023-05-18T13:44:15;3.55;;;2.90;;
10957;SDS011;5531;42.570;23.676;2023-05-18T13:46:43;2.58;;;2.28;;
10957;SDS011;5531;42.570;23.676;2023-05-18T13:49:14;4.18;;;2.67;;
10957;SDS011;5531;42.570;23.676;2023-05-18T13:51:43;2.83;;;2.53;;
10957;SDS011;5531;42.570;23.676;2023-05-18T13:54:12;3.30;;;3.00;;
10957;SDS011;5531;42.570;23.676;2023-05-18T13:56:41;3.58;;;3.28;;
10957;SDS011;5531;42.570;23.676;2023-05-18T13:59:09;4.43;;;2.92;;
10957;SDS011;5531;42.570;23.676;2023-05-18T14:01:39;3.30;;;2.95;;
10957;SDS011;5531;42.570;23.676;2023-05-18T14:04:08;3.75;;;3.17;;
10957;SDS011;5531;42.570;23.676;2023-05-18T14:06:40;3.85;;;3.45;;
10957;SDS011;5531;42.570;23.676;2023-05-18T14:09:08;3.95;;;3.30;;
10957;SDS011;5531;42.570;23.676;2023-05-18T14:11:37;4.28;;;3.10;;
10957;SDS011;5531;42.570;23.676;2023-05-18T14:14:06;3.25;;;2.95;;
10957;SDS011;5531;42.570;23.676;2023-05-18T14:16:34;4.30;;;3.38;;
10957;SDS011;5531;42.570;23.676;2023-05-18T14:19:03;2.92;;;2.70;;
10957;SDS011;5531;42.570;23.676;2023-05-18T14:21:32;3.75;;;3.17;;
10957;SDS011;5531;42.570;23.676;2023-05-18T14:24:03;3.13;;;2.72;;
10957;SDS011;5531;42.570;23.676;2023-05-18T14:26:34;4.28;;;2.80;;
10957;SDS011;5531;42.570;23.676;2023-05-18T14:29:03;3.63;;;3.33;;
10957;SDS011;5531;42.570;23.676;2023-05-18T14:31:31;3.83;;;3.42;;
10957;SDS011;5531;42.570;23.676;2023-05-18T14:34:00;4.38;;;3.35;;
10957;SDS011;5531;42.570;23.676;2023-05-18T14:36:29;3.60;;;3.15;;
10957;SDS011;5531;42.570;23.676;2023-05-18T14:38:57;4.75;;;3.47;;
10957;SDS011;5531;42.570;23.676;2023-05-18T14:41:28;3.28;;;2.97;;
10957;SDS011;5531;42.570;23.676;2023-05-18T14:43:57;4.20;;;3.75;;
10957;SDS011;5531;42.570;23.676;2023-05-18T14:46:28;4.38;;;3.78;;
10957;SDS011;5531;42.570;23.676;2023-05-18T14:48:56;4.07;;;3.50;;
10957;SDS011;5531;42.570;23.676;2023-05-18T14:51:25;3.67;;;3.38;;
10957;SDS011;5531;42.570;23.676;2023-05-18T14:53:53;3.75;;;3.35;;
10957;SDS011;5531;42.570;23.676;2023-05-18T14:56:22;3.70;;;3.40;;
10957;SDS011;5531;42.570;23.676;2023-05-18T14:58:53;3.80;;;3.28;;
10957;SDS011;5531;42.570;23.676;2023-05-18T15:01:22;4.15;;;3.10;;
10957;SDS011;5531;42.570;23.676;2023-05-18T15:03:50;3.83;;;3.20;;
10957;SDS011;5531;42.570;23.676;2023-05-18T15:06:19;3.60;;;3.30;;
10957;SDS011;5531;42.570;23.676;2023-05-18T15:08:47;5.35;;;3.67;;
10957;SDS011;5531;42.570;23.676;2023-05-18T15:11:16;3.30;;;3.00;;